createdAt,value
2018-01-03T00:00:29.684Z,9.00
2018-01-03T00:01:01.258Z,9.00
2018-01-03T00:01:32.816Z,9.00
2018-01-03T00:02:04.372Z,9.00
2018-01-03T00:02:35.939Z,9.10
2018-01-03T00:03:07.531Z,9.10
2018-01-03T00:03:39.128Z,9.00
2018-01-03T00:04:10.668Z,9.10
2018-01-03T00:04:42.214Z,9.00
2018-01-03T00:05:13.774Z,9.00
2018-01-03T00:05:45.322Z,9.10
2018-01-03T00:06:16.885Z,9.00
2018-01-03T00:06:48.442Z,9.00
2018-01-03T00:07:19.976Z,9.00
2018-01-03T00:07:51.533Z,9.00
2018-01-03T00:08:23.129Z,9.00
2018-01-03T00:08:54.959Z,9.10
2018-01-03T00:09:26.511Z,9.10
2018-01-03T00:09:58.064Z,9.10
2018-01-03T00:10:29.623Z,9.10
2018-01-03T00:11:01.162Z,9.00
2018-01-03T00:11:32.708Z,9.10
2018-01-03T00:12:04.260Z,9.00
2018-01-03T00:12:35.825Z,9.10
2018-01-03T00:13:07.375Z,9.00
2018-01-03T00:13:38.919Z,9.00
2018-01-03T00:14:10.468Z,9.00
2018-01-03T00:14:42.008Z,9.00
2018-01-03T00:15:13.542Z,9.00
2018-01-03T00:15:45.081Z,9.00
2018-01-03T00:16:16.627Z,8.90
2018-01-03T00:16:48.172Z,9.00
2018-01-03T00:17:19.718Z,8.90
2018-01-03T00:17:51.302Z,8.90
2018-01-03T00:18:22.848Z,8.90
2018-01-03T00:18:54.607Z,8.90
2018-01-03T00:19:26.172Z,9.00
2018-01-03T00:19:57.729Z,9.00
2018-01-03T00:20:29.285Z,8.90
2018-01-03T00:21:00.837Z,8.90
2018-01-03T00:21:32.379Z,8.90
2018-01-03T00:22:03.933Z,8.90
2018-01-03T00:22:35.503Z,9.00
2018-01-03T00:23:07.040Z,8.90
2018-01-03T00:23:38.596Z,8.90
2018-01-03T00:24:10.159Z,8.90
2018-01-03T00:24:41.739Z,8.80
2018-01-03T00:25:13.294Z,8.90
2018-01-03T00:25:44.854Z,8.90
2018-01-03T00:26:16.417Z,8.90
2018-01-03T00:26:47.956Z,8.90
2018-01-03T00:27:19.520Z,8.80
2018-01-03T00:27:51.077Z,8.80
2018-01-03T00:28:22.622Z,8.80
2018-01-03T00:28:54.177Z,8.90
2018-01-03T00:29:25.736Z,8.80
2018-01-03T00:29:57.284Z,8.80
2018-01-03T00:30:28.835Z,8.80
2018-01-03T00:31:00.390Z,8.90
2018-01-03T00:31:31.930Z,8.90
2018-01-03T00:32:03.466Z,8.90
2018-01-03T00:32:35.017Z,8.90
2018-01-03T00:33:06.544Z,8.90
2018-01-03T00:33:38.103Z,8.80
2018-01-03T00:34:09.646Z,8.90
2018-01-03T00:34:41.193Z,8.90
2018-01-03T00:35:12.756Z,9.00
2018-01-03T00:35:44.319Z,8.90
2018-01-03T00:36:15.867Z,8.90
2018-01-03T00:36:47.406Z,8.90
2018-01-03T00:37:18.947Z,8.90
2018-01-03T00:37:50.503Z,8.90
2018-01-03T00:38:22.050Z,8.90
2018-01-03T00:38:53.588Z,8.90
2018-01-03T00:39:25.140Z,8.80
2018-01-03T00:39:56.697Z,8.90
2018-01-03T00:40:28.235Z,8.90
2018-01-03T00:40:59.775Z,8.90
2018-01-03T00:41:31.324Z,8.80
2018-01-03T00:42:02.866Z,8.90
2018-01-03T00:42:34.411Z,8.80
2018-01-03T00:43:05.980Z,8.80
2018-01-03T00:43:37.513Z,8.90
2018-01-03T00:44:09.071Z,8.90
2018-01-03T00:44:40.621Z,8.90
2018-01-03T00:45:12.252Z,8.90
2018-01-03T00:45:43.781Z,8.90
2018-01-03T00:46:15.320Z,8.90
2018-01-03T00:46:46.870Z,8.90
2018-01-03T00:47:18.425Z,8.80
2018-01-03T00:47:50.015Z,8.90
2018-01-03T00:48:21.555Z,8.90
2018-01-03T00:48:53.119Z,9.00
2018-01-03T00:49:24.677Z,8.90
2018-01-03T00:49:56.225Z,8.90
2018-01-03T00:50:27.767Z,8.90
2018-01-03T00:50:59.315Z,8.90
2018-01-03T00:51:30.855Z,8.90
2018-01-03T00:52:02.413Z,8.80
2018-01-03T00:52:33.959Z,8.90
2018-01-03T00:53:05.514Z,8.90
2018-01-03T00:53:37.057Z,8.90
2018-01-03T00:54:08.600Z,8.90
2018-01-03T00:54:40.140Z,9.00
2018-01-03T00:55:11.676Z,9.00
2018-01-03T00:55:43.221Z,8.90
2018-01-03T00:56:14.823Z,9.00
2018-01-03T00:56:46.384Z,8.90
2018-01-03T00:57:17.933Z,9.00
2018-01-03T00:57:49.487Z,9.00
2018-01-03T00:58:21.032Z,8.90
2018-01-03T00:58:52.573Z,9.00
2018-01-03T00:59:24.137Z,9.00
2018-01-03T00:59:55.671Z,9.10
2018-01-03T01:00:27.333Z,9.00
2018-01-03T01:00:58.927Z,9.00
2018-01-03T01:01:30.471Z,9.00
2018-01-03T01:02:02.034Z,9.00
2018-01-03T01:02:33.603Z,9.00
2018-01-03T01:03:05.159Z,9.00
2018-01-03T01:03:36.721Z,9.10
2018-01-03T01:04:08.269Z,9.00
2018-01-03T01:04:39.818Z,9.10
2018-01-03T01:05:11.389Z,9.10
2018-01-03T01:05:42.993Z,9.10
2018-01-03T01:06:14.586Z,9.10
2018-01-03T01:06:46.155Z,9.10
2018-01-03T01:07:17.710Z,9.10
2018-01-03T01:07:49.294Z,9.10
2018-01-03T01:08:20.837Z,9.20
2018-01-03T01:08:52.386Z,9.00
2018-01-03T01:09:23.953Z,9.10
2018-01-03T01:09:55.527Z,9.10
2018-01-03T01:10:27.097Z,9.10
2018-01-03T01:10:58.665Z,9.10
2018-01-03T01:11:30.211Z,9.10
2018-01-03T01:12:01.776Z,9.20
2018-01-03T01:12:33.343Z,9.10
2018-01-03T01:13:04.912Z,9.10
2018-01-03T01:13:36.485Z,9.10
2018-01-03T01:14:08.063Z,9.10
2018-01-03T01:14:39.630Z,9.10
2018-01-03T01:15:11.191Z,9.10
2018-01-03T01:15:42.769Z,9.10
2018-01-03T01:16:14.347Z,9.10
2018-01-03T01:16:45.894Z,9.10
2018-01-03T01:17:17.475Z,9.10
2018-01-03T01:17:49.029Z,9.20
2018-01-03T01:18:20.603Z,9.20
2018-01-03T01:18:52.166Z,9.20
2018-01-03T01:19:23.709Z,9.20
2018-01-03T01:19:55.294Z,9.20
2018-01-03T01:20:26.900Z,9.20
2018-01-03T01:20:58.467Z,9.20
2018-01-03T01:21:30.056Z,9.20
2018-01-03T01:22:01.636Z,9.10
2018-01-03T01:22:33.203Z,9.20
2018-01-03T01:23:04.748Z,9.20
2018-01-03T01:23:36.290Z,9.30
2018-01-03T01:24:07.863Z,9.30
2018-01-03T01:24:39.418Z,9.30
2018-01-03T01:25:10.955Z,9.20
2018-01-03T01:25:42.505Z,9.30
2018-01-03T01:26:14.070Z,9.20
2018-01-03T01:26:45.647Z,9.20
2018-01-03T01:27:17.199Z,9.20
2018-01-03T01:27:48.769Z,9.20
2018-01-03T01:28:20.325Z,9.20
2018-01-03T01:28:51.883Z,9.20
2018-01-03T01:29:23.432Z,9.30
2018-01-03T01:29:54.982Z,9.30
2018-01-03T01:30:26.561Z,9.30
2018-01-03T01:30:58.095Z,9.30
2018-01-03T01:31:29.649Z,9.30
2018-01-03T01:32:01.232Z,9.20
2018-01-03T01:32:32.765Z,9.20
2018-01-03T01:33:04.318Z,9.20
2018-01-03T01:33:35.865Z,9.30
2018-01-03T01:34:07.414Z,9.30
2018-01-03T01:34:38.999Z,9.30
2018-01-03T01:35:10.567Z,9.30
2018-01-03T01:35:42.170Z,9.30
2018-01-03T01:36:13.890Z,9.40
2018-01-03T01:36:45.451Z,9.40
2018-01-03T01:37:16.996Z,9.40
2018-01-03T01:37:48.567Z,9.30
2018-01-03T01:38:20.113Z,9.30
2018-01-03T01:38:51.676Z,9.40
2018-01-03T01:39:23.224Z,9.40
2018-01-03T01:39:54.759Z,9.40
2018-01-03T01:40:26.329Z,9.40
2018-01-03T01:40:57.871Z,9.40
2018-01-03T01:41:29.423Z,9.40
2018-01-03T01:42:00.989Z,9.40
2018-01-03T01:42:32.544Z,9.50
2018-01-03T01:43:04.112Z,9.40
2018-01-03T01:43:35.680Z,9.50
2018-01-03T01:44:07.230Z,9.40
2018-01-03T01:44:38.778Z,9.50
2018-01-03T01:45:10.320Z,9.50
2018-01-03T01:45:41.975Z,9.50
2018-01-03T01:46:13.528Z,9.40
2018-01-03T01:46:45.092Z,9.50
2018-01-03T01:47:16.663Z,9.40
2018-01-03T01:47:48.277Z,9.50
2018-01-03T01:48:19.835Z,9.50
2018-01-03T01:49:06.945Z,9.50
2018-01-03T01:49:38.516Z,9.60
2018-01-03T01:50:10.086Z,9.60
2018-01-03T01:50:41.645Z,9.50
2018-01-03T01:51:13.213Z,9.50
2018-01-03T01:51:44.792Z,9.60
2018-01-03T01:52:16.339Z,9.60
2018-01-03T01:52:47.895Z,9.60
2018-01-03T01:53:19.458Z,9.70
2018-01-03T01:53:51.000Z,9.60
2018-01-03T01:54:22.551Z,9.60
2018-01-03T01:54:54.120Z,9.70
2018-01-03T01:55:25.683Z,9.60
2018-01-03T01:55:57.228Z,9.60
2018-01-03T01:56:28.817Z,9.70
2018-01-03T01:57:00.375Z,9.80
2018-01-03T01:57:31.935Z,9.80
2018-01-03T01:58:03.487Z,9.70
2018-01-03T01:58:35.036Z,9.70
2018-01-03T01:59:06.586Z,9.70
2018-01-03T01:59:38.140Z,9.70
2018-01-03T02:00:09.687Z,9.80
2018-01-03T02:00:41.329Z,9.90
2018-01-03T02:01:12.907Z,9.80
2018-01-03T02:01:44.463Z,9.80
2018-01-03T02:02:16.037Z,9.80
2018-01-03T02:02:47.616Z,9.80
2018-01-03T02:03:19.192Z,9.90
2018-01-03T02:03:50.804Z,9.90
2018-01-03T02:04:22.351Z,9.90
2018-01-03T02:04:53.941Z,9.90
2018-01-03T02:05:25.480Z,10.00
2018-01-03T02:05:57.044Z,9.90
2018-01-03T02:06:28.607Z,10.00
2018-01-03T02:07:00.144Z,10.10
2018-01-03T02:07:31.716Z,10.00
2018-01-03T02:08:03.270Z,10.10
2018-01-03T02:08:34.832Z,10.00
2018-01-03T02:09:06.418Z,10.00
2018-01-03T02:09:37.953Z,9.90
2018-01-03T02:10:09.545Z,10.00
2018-01-03T02:10:41.087Z,9.90
2018-01-03T02:11:12.635Z,9.80
2018-01-03T02:11:44.186Z,9.90
2018-01-03T02:12:15.781Z,9.90
2018-01-03T02:12:47.326Z,9.90
2018-01-03T02:13:18.867Z,9.80
2018-01-03T02:13:50.443Z,9.70
2018-01-03T02:14:21.980Z,9.70
2018-01-03T02:14:53.515Z,9.60
2018-01-03T02:15:25.092Z,9.70
2018-01-03T02:15:56.638Z,9.60
2018-01-03T02:16:28.182Z,9.60
2018-01-03T02:16:59.735Z,9.60
2018-01-03T02:17:31.264Z,9.50
2018-01-03T02:18:02.800Z,9.50
2018-01-03T02:18:34.343Z,9.50
2018-01-03T02:19:05.964Z,9.40
2018-01-03T02:19:37.515Z,9.30
2018-01-03T02:20:09.066Z,9.40
2018-01-03T02:20:40.624Z,9.30
2018-01-03T02:21:12.178Z,9.10
2018-01-03T02:21:43.721Z,9.10
2018-01-03T02:22:15.275Z,9.10
2018-01-03T02:22:46.838Z,9.10
2018-01-03T02:23:18.391Z,9.10
2018-01-03T02:23:49.948Z,9.10
2018-01-03T02:24:21.502Z,9.00
2018-01-03T02:24:53.046Z,9.10
2018-01-03T02:25:24.590Z,9.00
2018-01-03T02:25:56.148Z,9.00
2018-01-03T02:26:27.703Z,9.00
2018-01-03T02:26:59.257Z,9.00
2018-01-03T02:27:30.820Z,8.90
2018-01-03T02:28:02.368Z,8.90
2018-01-03T02:28:33.928Z,8.60
2018-01-03T02:29:05.481Z,8.80
2018-01-03T02:29:37.042Z,8.70
2018-01-03T02:30:08.578Z,8.70
2018-01-03T02:30:40.152Z,8.70
2018-01-03T02:31:11.720Z,8.70
2018-01-03T02:31:43.284Z,8.70
2018-01-03T02:32:14.833Z,8.60
2018-01-03T02:32:46.367Z,8.70
2018-01-03T02:33:17.903Z,8.60
2018-01-03T02:33:49.452Z,8.70
2018-01-03T02:34:20.988Z,8.70
2018-01-03T02:34:52.544Z,8.60
2018-01-03T02:35:24.096Z,8.60
2018-01-03T02:35:55.639Z,8.70
2018-01-03T02:36:27.198Z,8.70
2018-01-03T02:36:58.788Z,8.60
2018-01-03T02:37:30.336Z,8.60
2018-01-03T02:38:01.894Z,8.70
2018-01-03T02:38:33.464Z,8.60
2018-01-03T02:39:05.033Z,8.50
2018-01-03T02:39:36.587Z,8.50
2018-01-03T02:40:08.180Z,8.50
2018-01-03T02:40:39.743Z,8.60
2018-01-03T02:41:11.296Z,8.60
2018-01-03T02:41:42.867Z,8.60
2018-01-03T02:42:14.423Z,8.50
2018-01-03T02:42:45.969Z,8.60
2018-01-03T02:43:17.534Z,8.50
2018-01-03T02:43:49.088Z,8.50
2018-01-03T02:44:20.653Z,8.50
2018-01-03T02:44:52.194Z,8.60
2018-01-03T02:45:23.741Z,8.60
2018-01-03T02:45:55.302Z,8.60
2018-01-03T02:46:26.878Z,8.60
2018-01-03T02:46:58.448Z,8.60
2018-01-03T02:47:30.000Z,8.60
2018-01-03T02:48:01.544Z,8.60
2018-01-03T02:48:33.084Z,8.70
2018-01-03T02:49:04.652Z,8.70
2018-01-03T02:49:36.215Z,8.70
2018-01-03T02:50:07.753Z,8.80
2018-01-03T03:00:29.356Z,8.80
2018-01-03T03:01:00.920Z,9.30
2018-01-03T03:01:32.488Z,9.20
2018-01-03T03:02:04.113Z,9.30
2018-01-03T03:02:35.676Z,9.30
2018-01-03T03:03:07.240Z,9.30
2018-01-03T03:03:38.776Z,9.30
2018-01-03T03:04:10.339Z,9.30
2018-01-03T03:04:41.892Z,9.30
2018-01-03T03:05:13.465Z,9.20
2018-01-03T03:05:45.012Z,9.30
2018-01-03T03:06:16.563Z,9.30
2018-01-03T03:06:48.130Z,9.30
2018-01-03T03:07:19.679Z,9.30
2018-01-03T03:07:51.250Z,9.30
2018-01-03T03:08:22.788Z,9.30
2018-01-03T03:08:54.332Z,9.30
2018-01-03T03:09:25.863Z,9.30
2018-01-03T03:09:57.439Z,9.30
2018-01-03T03:10:28.987Z,9.30
2018-01-03T03:11:00.552Z,9.40
2018-01-03T03:11:32.111Z,9.40
2018-01-03T03:12:03.666Z,9.30
2018-01-03T03:12:35.221Z,9.20
2018-01-03T03:13:06.802Z,9.30
2018-01-03T03:13:38.349Z,9.30
2018-01-03T03:14:09.900Z,9.40
2018-01-03T03:14:41.447Z,9.30
2018-01-03T03:15:12.995Z,9.30
2018-01-03T03:15:44.647Z,9.30
2018-01-03T03:16:16.194Z,9.30
2018-01-03T03:16:47.755Z,9.30
2018-01-03T03:17:19.311Z,9.30
2018-01-03T03:17:50.877Z,9.30
2018-01-03T03:18:22.432Z,9.30
2018-01-03T03:18:54.005Z,9.40
2018-01-03T03:19:26.072Z,9.30
2018-01-03T03:19:57.611Z,9.30
2018-01-03T03:20:29.155Z,9.30
2018-01-03T03:21:00.722Z,9.20
2018-01-03T03:21:32.280Z,9.30
2018-01-03T03:22:03.835Z,9.40
2018-01-03T03:22:35.395Z,9.30
2018-01-03T03:23:06.948Z,9.30
2018-01-03T03:23:38.483Z,9.30
2018-01-03T03:24:10.034Z,9.30
2018-01-03T03:24:41.563Z,9.30
2018-01-03T03:25:13.099Z,9.30
2018-01-03T03:25:44.622Z,9.30
2018-01-03T03:26:16.179Z,9.30
2018-01-03T03:26:47.722Z,9.30
2018-01-03T03:27:19.295Z,9.20
2018-01-03T03:27:50.847Z,9.20
2018-01-03T03:28:22.400Z,9.30
2018-01-03T03:28:53.970Z,9.20
2018-01-03T03:29:25.509Z,9.20
2018-01-03T03:29:57.067Z,9.20
2018-01-03T03:30:28.626Z,9.20
2018-01-03T03:31:00.172Z,9.20
2018-01-03T03:31:31.726Z,9.20
2018-01-03T03:32:03.297Z,9.10
2018-01-03T03:32:34.848Z,9.20
2018-01-03T03:33:06.375Z,9.00
2018-01-03T03:33:37.940Z,9.10
2018-01-03T03:34:09.474Z,9.10
2018-01-03T03:34:41.007Z,9.10
2018-01-03T03:35:12.534Z,9.00
2018-01-03T03:35:44.071Z,9.10
2018-01-03T03:36:15.622Z,9.10
2018-01-03T03:36:47.166Z,9.10
2018-01-03T03:37:18.724Z,9.00
2018-01-03T03:37:50.241Z,9.00
2018-01-03T03:38:21.791Z,9.00
2018-01-03T03:38:53.327Z,9.00
2018-01-03T03:39:24.864Z,8.90
2018-01-03T03:39:56.395Z,9.00
2018-01-03T03:40:27.945Z,8.90
2018-01-03T03:40:59.501Z,9.00
2018-01-03T03:41:31.040Z,8.90
2018-01-03T03:42:02.652Z,8.90
2018-01-03T03:42:34.211Z,8.90
2018-01-03T03:43:05.757Z,8.80
2018-01-03T03:43:37.330Z,8.90
2018-01-03T03:44:08.882Z,8.80
2018-01-03T03:44:40.428Z,8.80
2018-01-03T03:45:12.000Z,8.80
2018-01-03T03:45:43.549Z,8.70
2018-01-03T03:56:05.138Z,8.70
2018-01-03T03:56:36.681Z,8.10
2018-01-03T03:57:08.234Z,8.10
2018-01-03T03:57:39.763Z,8.00
2018-01-03T03:58:11.316Z,7.90
2018-01-03T03:58:42.873Z,8.00
2018-01-03T03:59:14.427Z,7.90
2018-01-03T03:59:45.971Z,7.90
2018-01-03T04:00:17.529Z,7.90
2018-01-03T04:00:52.856Z,7.90
2018-01-03T04:01:24.421Z,7.80
2018-01-03T04:01:56.001Z,7.80
2018-01-03T04:02:27.541Z,7.90
2018-01-03T04:02:59.092Z,7.80
2018-01-03T04:03:30.687Z,7.80
2018-01-03T04:04:02.235Z,7.80
2018-01-03T04:04:33.808Z,7.80
2018-01-03T04:05:05.361Z,7.90
2018-01-03T04:05:36.907Z,7.80
2018-01-03T04:06:08.459Z,7.90
2018-01-03T04:06:40.034Z,7.90
2018-01-03T04:07:11.580Z,7.80
2018-01-03T04:07:43.125Z,7.90
2018-01-03T04:08:14.699Z,7.90
2018-01-03T04:08:46.233Z,7.80
2018-01-03T04:09:17.769Z,7.90
2018-01-03T04:09:49.325Z,7.90
2018-01-03T04:10:20.856Z,7.90
2018-01-03T04:10:52.395Z,7.90
2018-01-03T04:11:23.937Z,7.90
2018-01-03T04:11:55.511Z,7.90
2018-01-03T04:12:27.051Z,7.90
2018-01-03T04:12:58.601Z,7.90
2018-01-03T04:13:30.156Z,7.80
2018-01-03T04:14:01.713Z,7.90
2018-01-03T04:14:33.277Z,7.80
2018-01-03T04:15:04.827Z,7.80
2018-01-03T04:15:36.389Z,7.80
2018-01-03T04:16:11.483Z,7.80
2018-01-03T04:16:43.023Z,7.80
2018-01-03T04:17:14.579Z,7.70
2018-01-03T04:17:46.123Z,7.80
2018-01-03T04:18:17.683Z,7.80
2018-01-03T04:18:49.257Z,7.70
2018-01-03T04:19:20.791Z,7.80
2018-01-03T04:19:52.331Z,7.80
2018-01-03T04:20:23.885Z,7.70
2018-01-03T04:20:55.411Z,7.80
2018-01-03T04:21:26.939Z,7.70
2018-01-03T04:21:58.487Z,7.70
2018-01-03T04:22:30.037Z,7.70
2018-01-03T04:23:01.587Z,7.70
2018-01-03T04:23:33.135Z,7.60
2018-01-03T04:24:04.683Z,7.70
2018-01-03T04:24:36.227Z,7.60
2018-01-03T04:25:07.767Z,7.60
2018-01-03T04:25:39.301Z,7.60
2018-01-03T04:26:10.839Z,7.60
2018-01-03T04:26:42.379Z,7.60
2018-01-03T04:27:13.939Z,7.60
2018-01-03T04:27:45.467Z,7.60
2018-01-03T04:28:17.009Z,7.50
2018-01-03T04:28:48.590Z,7.50
2018-01-03T04:29:20.129Z,7.60
2018-01-03T04:29:51.689Z,7.60
2018-01-03T04:30:23.245Z,7.50
2018-01-03T04:30:54.821Z,7.60
2018-01-03T04:31:31.455Z,7.50
2018-01-03T04:32:03.041Z,7.50
2018-01-03T04:32:34.601Z,7.50
2018-01-03T04:33:06.158Z,7.50
2018-01-03T04:33:37.707Z,7.50
2018-01-03T04:34:09.251Z,7.60
2018-01-03T04:34:40.814Z,7.50
2018-01-03T04:35:12.365Z,7.40
2018-01-03T04:35:43.914Z,7.40
2018-01-03T04:36:15.453Z,7.40
2018-01-03T04:36:47.029Z,7.60
2018-01-03T04:37:18.567Z,7.40
2018-01-03T04:37:50.133Z,7.50
2018-01-03T04:38:21.691Z,7.50
2018-01-03T04:38:53.234Z,7.40
2018-01-03T04:39:24.773Z,7.50
2018-01-03T04:39:56.314Z,7.40
2018-01-03T04:40:27.853Z,7.50
2018-01-03T04:40:59.407Z,7.40
2018-01-03T04:41:30.960Z,7.40
2018-01-03T04:42:02.533Z,7.40
2018-01-03T04:42:34.067Z,7.50
2018-01-03T04:43:05.627Z,7.50
2018-01-03T04:43:37.194Z,7.50
2018-01-03T04:44:08.725Z,7.40
2018-01-03T04:44:40.287Z,7.40
2018-01-03T04:45:11.829Z,7.40
2018-01-03T04:45:43.399Z,7.40
2018-01-03T04:46:14.939Z,7.40
2018-01-03T04:46:46.492Z,7.50
2018-01-03T04:47:18.051Z,7.40
2018-01-03T04:47:49.607Z,7.40
2018-01-03T04:48:21.215Z,7.40
2018-01-03T04:48:52.765Z,7.40
2018-01-03T04:49:24.357Z,7.50
2018-01-03T04:49:55.889Z,7.40
2018-01-03T04:50:27.439Z,7.40
2018-01-03T04:50:58.983Z,7.40
2018-01-03T04:51:30.525Z,7.40
2018-01-03T04:52:02.070Z,7.40
2018-01-03T04:52:33.633Z,7.40
2018-01-03T04:53:05.191Z,7.50
2018-01-03T04:53:36.735Z,7.40
2018-01-03T04:54:08.293Z,7.40
2018-01-03T04:54:39.837Z,7.40
2018-01-03T04:55:11.391Z,7.40
2018-01-03T04:55:42.943Z,7.50
2018-01-03T04:56:14.493Z,7.50
2018-01-03T04:56:46.043Z,7.50
2018-01-03T04:57:17.573Z,7.50
2018-01-03T04:57:49.135Z,7.60
2018-01-03T04:58:20.690Z,7.50
2018-01-03T04:58:52.239Z,7.60
2018-01-03T04:59:23.807Z,7.50
2018-01-03T04:59:55.343Z,7.60
2018-01-03T05:00:26.931Z,7.60
2018-01-03T05:00:58.513Z,7.60
2018-01-03T05:01:30.091Z,7.60
2018-01-03T05:02:01.659Z,7.60
2018-01-03T05:02:33.225Z,7.70
2018-01-03T05:03:04.787Z,7.60
2018-01-03T05:03:36.343Z,7.70
2018-01-03T05:04:07.897Z,7.70
2018-01-03T05:04:39.455Z,7.70
2018-01-03T05:05:11.035Z,7.70
2018-01-03T05:05:42.601Z,7.80
2018-01-03T05:06:14.173Z,7.80
2018-01-03T05:06:45.755Z,7.70
2018-01-03T05:07:17.331Z,7.70
2018-01-03T05:07:48.889Z,7.70
2018-01-03T05:08:20.439Z,7.70
2018-01-03T05:08:51.989Z,7.90
2018-01-03T05:09:23.575Z,7.80
2018-01-03T05:09:55.149Z,7.90
2018-01-03T05:10:26.699Z,7.80
2018-01-03T05:10:58.249Z,7.90
2018-01-03T05:11:29.785Z,7.90
2018-01-03T05:12:01.337Z,7.90
2018-01-03T05:12:32.887Z,7.90
2018-01-03T05:13:04.431Z,7.90
2018-01-03T05:13:35.970Z,7.90
2018-01-03T05:14:07.515Z,7.90
2018-01-03T05:14:39.079Z,7.90
2018-01-03T05:15:10.642Z,7.90
2018-01-03T05:15:42.179Z,7.80
2018-01-03T05:16:13.729Z,7.80
2018-01-03T05:16:45.297Z,7.80
2018-01-03T05:17:16.856Z,7.80
2018-01-03T05:17:48.425Z,7.80
2018-01-03T05:18:19.963Z,7.70
2018-01-03T05:18:51.542Z,7.70
2018-01-03T05:19:23.085Z,7.60
2018-01-03T05:19:54.637Z,7.40
2018-01-03T05:20:26.231Z,7.30
2018-01-03T05:20:57.793Z,7.40
2018-01-03T05:21:29.339Z,7.30
2018-01-03T05:22:00.898Z,7.20
2018-01-03T05:22:32.459Z,7.20
2018-01-03T05:23:04.011Z,7.10
2018-01-03T05:23:35.567Z,7.00
2018-01-03T05:24:07.127Z,7.10
2018-01-03T05:24:38.706Z,7.00
2018-01-03T05:25:10.265Z,7.00
2018-01-03T05:25:41.821Z,6.90
2018-01-03T05:26:13.371Z,7.00
2018-01-03T05:26:44.933Z,6.90
2018-01-03T05:27:16.519Z,6.90
2018-01-03T05:27:48.095Z,6.80
2018-01-03T05:28:19.657Z,6.80
2018-01-03T05:28:51.211Z,6.80
2018-01-03T05:29:22.761Z,6.80
2018-01-03T05:29:54.315Z,6.80
2018-01-03T05:30:25.864Z,6.80
2018-01-03T05:30:57.434Z,6.70
2018-01-03T05:31:29.003Z,6.70
2018-01-03T05:32:00.584Z,6.60
2018-01-03T05:32:32.154Z,6.60
2018-01-03T05:33:03.697Z,6.70
2018-01-03T05:33:35.274Z,6.70
2018-01-03T05:34:06.820Z,6.50
2018-01-03T05:34:38.379Z,6.60
2018-01-03T05:35:09.911Z,6.60
2018-01-03T05:35:41.465Z,6.60
2018-01-03T05:36:13.047Z,6.60
2018-01-03T05:36:44.595Z,6.60
2018-01-03T05:37:16.175Z,6.50
2018-01-03T05:37:47.723Z,6.60
2018-01-03T05:38:19.283Z,6.60
2018-01-03T05:38:50.849Z,6.60
2018-01-03T05:39:22.392Z,6.60
2018-01-03T05:39:53.949Z,6.60
2018-01-03T05:40:25.484Z,6.60
2018-01-03T05:40:57.031Z,6.60
2018-01-03T05:41:28.595Z,6.60
2018-01-03T05:42:00.131Z,6.50
2018-01-03T05:42:31.675Z,6.60
2018-01-03T05:43:03.222Z,6.60
2018-01-03T05:43:34.769Z,6.60
2018-01-03T05:44:06.343Z,6.50
2018-01-03T05:44:37.899Z,6.50
2018-01-03T05:45:10.430Z,6.50
2018-01-03T05:45:42.551Z,6.60
2018-01-03T05:46:14.120Z,6.60
2018-01-03T05:46:45.681Z,6.60
2018-01-03T05:47:17.251Z,6.60
2018-01-03T05:47:48.803Z,6.50
2018-01-03T05:48:20.361Z,6.50
2018-01-03T05:48:51.895Z,6.50
2018-01-03T05:49:23.442Z,6.50
2018-01-03T05:49:54.991Z,6.50
2018-01-03T05:50:26.552Z,6.40
2018-01-03T05:50:58.097Z,6.50
2018-01-03T05:51:29.653Z,6.40
2018-01-03T05:52:01.215Z,6.40
2018-01-03T05:52:32.785Z,6.40
2018-01-03T05:53:04.325Z,6.40
2018-01-03T05:53:35.877Z,6.40
2018-01-03T05:54:07.415Z,6.40
2018-01-03T05:54:38.975Z,6.40
2018-01-03T05:55:10.555Z,6.40
2018-01-03T05:55:42.105Z,6.40
2018-01-03T05:56:13.653Z,6.40
2018-01-03T05:56:45.223Z,6.30
2018-01-03T05:57:16.816Z,6.40
2018-01-03T05:57:48.375Z,6.40
2018-01-03T05:58:19.937Z,6.40
2018-01-03T05:58:51.493Z,6.40
2018-01-03T05:59:23.043Z,6.40
2018-01-03T05:59:54.613Z,6.40
2018-01-03T06:00:26.184Z,6.30
2018-01-03T06:00:57.755Z,6.40
2018-01-03T06:01:29.317Z,6.50
2018-01-03T06:02:00.875Z,6.40
2018-01-03T06:02:32.416Z,6.40
2018-01-03T06:03:03.987Z,6.30
2018-01-03T06:03:35.535Z,6.40
2018-01-03T06:04:07.089Z,6.40
2018-01-03T06:04:38.643Z,6.40
2018-01-03T06:05:10.187Z,6.30
2018-01-03T06:05:41.737Z,6.40
2018-01-03T06:06:13.297Z,6.20
2018-01-03T06:06:44.859Z,6.40
2018-01-03T06:07:16.415Z,6.40
2018-01-03T06:07:47.961Z,6.30
2018-01-03T06:08:19.519Z,6.30
2018-01-03T06:08:51.065Z,6.40
2018-01-03T06:09:22.609Z,6.30
2018-01-03T06:09:54.162Z,6.40
2018-01-03T06:10:25.710Z,6.40
2018-01-03T06:10:57.264Z,6.40
2018-01-03T06:11:28.827Z,6.30
2018-01-03T06:12:00.377Z,6.30
2018-01-03T06:12:31.941Z,6.40
2018-01-03T06:13:03.503Z,6.40
2018-01-03T06:13:35.055Z,6.30
2018-01-03T06:14:06.617Z,6.40
2018-01-03T06:14:38.189Z,6.30
2018-01-03T06:15:09.759Z,6.30
2018-01-03T06:15:41.291Z,6.30
2018-01-03T06:16:12.833Z,6.40
2018-01-03T06:16:44.404Z,6.30
2018-01-03T06:17:15.977Z,6.30
2018-01-03T06:17:47.539Z,6.30
2018-01-03T06:18:19.129Z,6.30
2018-01-03T06:18:50.673Z,6.30
2018-01-03T06:19:22.209Z,6.30
2018-01-03T06:19:53.769Z,6.20
2018-01-03T06:20:25.319Z,6.30
2018-01-03T06:20:56.883Z,6.40
2018-01-03T06:21:28.467Z,6.30
2018-01-03T06:22:00.008Z,6.30
2018-01-03T06:22:31.561Z,6.40
2018-01-03T06:23:03.111Z,6.30
2018-01-03T06:23:34.701Z,6.40
2018-01-03T06:24:06.261Z,6.40
2018-01-03T06:24:37.833Z,6.40
2018-01-03T06:25:09.399Z,6.40
2018-01-03T06:25:40.951Z,6.40
2018-01-03T06:26:12.492Z,6.40
2018-01-03T06:26:44.053Z,6.40
2018-01-03T06:27:15.613Z,6.40
2018-01-03T06:27:47.174Z,6.40
2018-01-03T06:28:18.715Z,6.50
2018-01-03T06:28:50.293Z,6.50
2018-01-03T06:29:21.845Z,6.50
2018-01-03T06:29:53.400Z,6.50
2018-01-03T06:30:24.965Z,6.30
2018-01-03T06:30:56.523Z,6.50
2018-01-03T06:31:28.063Z,6.50
2018-01-03T06:31:59.599Z,6.50
2018-01-03T06:32:31.151Z,6.50
2018-01-03T06:33:02.687Z,6.40
2018-01-03T06:33:34.241Z,6.50
2018-01-03T06:34:05.807Z,6.50
2018-01-03T06:34:37.361Z,6.50
2018-01-03T06:35:08.929Z,6.50
2018-01-03T06:35:40.489Z,6.50
2018-01-03T06:36:12.035Z,6.50
2018-01-03T06:36:43.604Z,6.50
2018-01-03T06:37:15.175Z,6.50
2018-01-03T06:37:46.733Z,6.60
2018-01-03T06:38:18.289Z,6.60
2018-01-03T06:38:49.839Z,6.50
2018-01-03T06:39:21.413Z,6.50
2018-01-03T06:39:52.971Z,6.50
2018-01-03T06:40:24.532Z,6.50
2018-01-03T06:40:56.083Z,6.50
2018-01-03T06:41:27.651Z,6.60
2018-01-03T06:41:59.203Z,6.60
2018-01-03T06:42:30.757Z,6.40
2018-01-03T06:43:02.302Z,6.50
2018-01-03T06:43:33.895Z,6.50
2018-01-03T06:44:05.431Z,6.50
2018-01-03T06:44:36.993Z,6.60
2018-01-03T06:45:08.555Z,6.50
2018-01-03T06:45:40.097Z,6.60
2018-01-03T06:46:11.669Z,6.50
2018-01-03T06:46:43.233Z,6.50
2018-01-03T06:47:14.798Z,6.50
2018-01-03T06:47:46.371Z,6.40
2018-01-03T06:48:17.948Z,6.50
2018-01-03T06:48:49.503Z,6.50
2018-01-03T06:49:21.062Z,6.50
2018-01-03T06:49:52.628Z,6.60
2018-01-03T06:50:24.167Z,6.60
2018-01-03T06:50:55.734Z,6.60
2018-01-03T06:51:27.285Z,6.50
2018-01-03T06:51:58.847Z,6.60
2018-01-03T06:52:30.399Z,6.60
2018-01-03T06:53:01.981Z,6.60
2018-01-03T06:53:33.533Z,6.60
2018-01-03T06:54:05.109Z,6.60
2018-01-03T06:54:36.688Z,6.50
2018-01-03T06:55:08.261Z,6.50
2018-01-03T06:55:39.835Z,6.60
2018-01-03T06:56:11.383Z,6.60
2018-01-03T06:56:42.935Z,6.60
2018-01-03T06:57:14.491Z,6.70
2018-01-03T06:57:46.043Z,6.50
2018-01-03T06:58:17.591Z,6.60
2018-01-03T06:58:49.146Z,6.60
2018-01-03T06:59:20.701Z,6.60
2018-01-03T06:59:52.274Z,6.50
2018-01-03T07:00:23.817Z,6.50
2018-01-03T07:00:55.404Z,6.60
2018-01-03T07:01:26.979Z,6.50
2018-01-03T07:01:58.541Z,6.50
2018-01-03T07:02:30.093Z,6.50
2018-01-03T07:03:01.653Z,6.50
2018-01-03T07:03:33.205Z,6.50
2018-01-03T07:04:04.751Z,6.40
2018-01-03T07:04:36.333Z,6.40
2018-01-03T07:05:07.893Z,6.40
2018-01-03T07:05:39.469Z,6.40
2018-01-03T07:06:11.011Z,6.40
2018-01-03T07:06:42.569Z,6.40
2018-01-03T07:07:14.117Z,6.40
2018-01-03T07:07:45.653Z,6.40
2018-01-03T07:08:17.203Z,6.30
2018-01-03T07:08:48.747Z,6.30
2018-01-03T07:09:20.307Z,6.40
2018-01-03T07:09:51.865Z,6.30
2018-01-03T07:10:23.423Z,6.30
2018-01-03T07:10:54.980Z,6.30
2018-01-03T07:11:26.555Z,6.30
2018-01-03T07:11:58.130Z,6.20
2018-01-03T07:12:29.683Z,6.20
2018-01-03T07:13:01.261Z,6.20
2018-01-03T07:13:32.815Z,6.30
2018-01-03T07:14:04.381Z,6.30
2018-01-03T07:14:35.926Z,6.20
2018-01-03T07:15:07.487Z,6.10
2018-01-03T07:15:39.051Z,6.20
2018-01-03T07:16:10.619Z,6.20
2018-01-03T07:16:42.225Z,6.20
2018-01-03T07:17:14.052Z,6.10
2018-01-03T07:17:45.633Z,6.20
2018-01-03T07:18:17.174Z,6.10
2018-01-03T07:18:48.729Z,6.20
2018-01-03T07:19:20.279Z,6.20
2018-01-03T07:19:51.847Z,6.20
2018-01-03T07:20:23.413Z,6.10